Time;durP1;ratioP1;P1;durP2;ratioP2;P2;SDS_P1;SDS_P2;PMS_P1;PMS_P2;Temp;Humidity;BMP_temperature;BMP_pressure;BME280_temperature;BME280_humidity;BME280_pressure;Samples;Min_cycle;Max_cycle;Signal;HPM_P1;HPM_P2
2022/06/17 00:01:48;;;;;;;;;12.00;11.75;;;;;24.42;36.58;101350.09;5007515;28;45416;-76
2022/06/17 00:04:18;;;;;;;;;9.25;9.25;;;;;24.34;36.32;101344.34;4994782;28;45362;-77
2022/06/17 00:06:50;;;;;;;;;9.25;9.00;;;;;24.38;36.42;101353.09;5006256;28;45458;-77
2022/06/17 00:09:18;;;;;;;;;10.25;10.25;;;;;24.32;36.34;101337.31;5013442;28;45521;-76
2022/06/17 00:11:44;;;;;;;;;11.75;10.00;;;;;24.32;36.38;101345.41;5013886;28;45525;-78
2022/06/17 00:14:16;;;;;;;;;10.00;9.75;;;;;24.17;36.81;101329.22;5019735;28;45344;-76
2022/06/17 00:16:42;;;;;;;;;10.00;8.50;;;;;24.21;37.30;101338.88;5011420;28;46657;-77
2022/06/17 00:19:08;;;;;;;;;10.00;10.00;;;;;24.21;37.04;101335.31;5013450;28;45534;-75
2022/06/17 00:21:37;;;;;;;;;10.00;9.25;;;;;24.15;36.83;101339.28;5010899;28;45584;-76
2022/06/17 00:24:30;;;;;;;;;11.75;10.00;;;;;24.12;37.54;101334.94;5015007;28;45634;-77
2022/06/17 00:26:56;;;;;;;;;3.00;3.00;;;;;24.08;37.66;101330.72;5012275;28;45327;-77
2022/06/17 00:29:25;;;;;;;;;7.00;7.00;;;;;24.09;37.88;101331.56;5014009;28;45377;-76
2022/06/17 00:31:51;;;;;;;;;10.50;9.00;;;;;24.07;37.75;101328.13;5014672;28;45454;-77
2022/06/17 00:34:16;;;;;;;;;8.75;8.75;;;;;24.05;37.56;101324.63;5013492;28;45416;-77
2022/06/17 00:36:42;;;;;;;;;10.50;10.00;;;;;23.96;37.74;101318.03;5012669;28;46409;-76
2022/06/17 00:39:23;;;;;;;;;11.00;9.75;;;;;23.96;38.12;101326.13;5013758;28;45418;-76
2022/06/17 00:41:52;;;;;;;;;8.50;8.50;;;;;23.93;38.17;101335.28;5016021;28;45743;-77
2022/06/17 00:44:42;;;;;;;;;11.00;11.00;;;;;23.92;38.29;101340.78;5014424;28;45377;-76
2022/06/17 00:47:42;;;;;;;;;;;;;;;;;;;;;
2022/06/17 00:50:27;;;;;;;;;12.50;9.50;;;;;23.78;38.23;101337.09;5013130;28;71791;-80
2022/06/17 00:53:16;;;;;;;;;9.00;9.00;;;;;23.78;38.64;101342.50;5015297;28;45466;-80
2022/06/17 00:55:55;;;;;;;;;9.75;9.75;;;;;23.74;38.65;101340.94;5012742;28;45475;-80
2022/06/17 00:58:25;;;;;;;;;8.00;8.00;;;;;23.67;39.21;101326.13;5025493;28;45672;-80
2022/06/17 01:01:06;;;;;;;;;11.00;11.00;;;;;23.50;39.48;101308.28;5001842;28;45498;-80
2022/06/17 01:03:36;;;;;;;;;14.75;11.75;;;;;23.54;39.57;101322.47;5012888;28;45655;-80
2022/06/17 01:06:05;;;;;;;;;11.25;11.25;;;;;23.60;39.78;101336.41;5013906;28;45397;-80
2022/06/17 01:11:27;;;;;;;;;12.00;12.00;;;;;23.49;39.53;101333.53;5017874;28;45292;-81
2022/06/17 01:13:53;;;;;;;;;10.25;10.25;;;;;23.49;40.14;101332.66;5015436;28;45537;-76
2022/06/17 01:16:24;;;;;;;;;9.50;9.50;;;;;23.43;40.26;101339.31;5012384;28;45412;-76
2022/06/17 01:18:54;;;;;;;;;10.75;8.75;;;;;23.39;40.21;101340.47;5014900;28;45442;-77
2022/06/17 01:21:45;;;;;;;;;11.00;11.00;;;;;23.39;40.16;101343.16;5018209;28;45340;-76
2022/06/17 01:24:11;;;;;;;;;9.00;9.00;;;;;23.32;40.70;101348.09;5008131;28;45904;-76
2022/06/17 01:26:36;;;;;;;;;13.75;10.75;;;;;23.29;40.85;101350.09;5016413;28;45435;-78
2022/06/17 01:29:06;;;;;;;;;12.50;11.00;;;;;23.22;40.94;101346.91;5016796;28;45433;-76
2022/06/17 01:31:31;;;;;;;;;13.75;13.75;;;;;23.21;40.71;101358.63;5014572;28;45437;-76
2022/06/17 01:33:57;;;;;;;;;12.75;11.50;;;;;23.17;41.13;101360.66;5013837;28;45511;-78
2022/06/17 01:36:28;;;;;;;;;9.50;9.50;;;;;23.15;41.09;101350.94;5014255;28;45630;-77
2022/06/17 01:38:59;;;;;;;;;9.50;9.50;;;;;23.12;41.17;101349.28;5016110;28;46403;-78
2022/06/17 01:41:28;;;;;;;;;10.75;10.75;;;;;23.10;40.99;101363.84;5023300;28;45461;-80
2022/06/17 01:43:56;;;;;;;;;12.00;11.75;;;;;23.09;41.43;101364.75;5016181;28;45523;-80
2022/06/17 01:46:37;;;;;;;;;12.00;12.00;;;;;23.05;41.26;101356.84;5017133;28;45446;-80
2022/06/17 01:49:22;;;;;;;;;9.25;9.25;;;;;23.05;41.38;101361.38;5015069;28;46677;-80
2022/06/17 01:51:52;;;;;;;;;9.75;9.75;;;;;23.01;41.29;101363.38;5015821;28;45702;-80
2022/06/17 01:54:25;;;;;;;;;10.50;10.50;;;;;23.01;41.59;101365.22;5015989;28;45403;-76
2022/06/17 01:56:54;;;;;;;;;13.00;13.00;;;;;22.99;41.77;101370.69;5013059;28;45544;-77
2022/06/17 01:59:36;;;;;;;;;11.00;11.00;;;;;22.97;41.93;101369.03;5013778;28;45727;-77
2022/06/17 02:02:03;;;;;;;;;12.00;12.00;;;;;22.94;41.95;101380.00;5015380;28;45672;-77
2022/06/17 02:04:35;;;;;;;;;10.25;9.00;;;;;22.92;41.96;101376.53;5015547;28;45411;-76
2022/06/17 02:07:12;;;;;;;;;12.25;11.75;;;;;22.90;41.80;101387.41;5004144;28;45594;-77
2022/06/17 02:09:37;;;;;;;;;10.25;10.25;;;;;22.90;41.73;101382.03;5023289;28;45378;-77
2022/06/17 02:12:05;;;;;;;;;12.75;11.75;;;;;22.89;41.96;101378.44;5019301;28;45421;-76
2022/06/17 02:14:31;;;;;;;;;11.25;10.25;;;;;22.87;41.92;101385.75;5013277;28;45456;-78
2022/06/17 02:16:58;;;;;;;;;11.75;9.25;;;;;22.78;41.97;101390.84;4996501;28;45546;-76
2022/06/17 02:19:27;;;;;;;;;11.00;9.00;;;;;22.86;42.16;101407.41;5012484;28;45587;-77
2022/06/17 02:22:04;;;;;;;;;12.25;9.25;;;;;22.84;42.19;101394.03;5014955;28;45525;-77
2022/06/17 02:24:29;;;;;;;;;13.75;12.50;;;;;22.77;42.16;101389.94;5016227;28;45408;-77
2022/06/17 02:26:59;;;;;;;;;8.00;8.00;;;;;22.79;42.36;101393.44;5014122;28;45541;-77
2022/06/17 02:29:27;;;;;;;;;10.00;10.00;;;;;22.75;42.30;101397.25;5029396;28;46138;-77
2022/06/17 02:31:54;;;;;;;;;10.75;10.75;;;;;22.77;42.34;101403.41;5014580;28;45485;-77
2022/06/17 02:34:21;;;;;;;;;11.25;11.00;;;;;22.76;42.23;101403.50;5013893;28;45461;-76
2022/06/17 02:37:06;;;;;;;;;12.00;12.00;;;;;22.76;42.69;101406.22;5013096;28;45593;-77
2022/06/17 02:39:33;;;;;;;;;10.25;10.25;;;;;22.71;42.67;101406.47;5019722;28;45474;-77
2022/06/17 02:41:59;;;;;;;;;10.25;9.75;;;;;22.69;42.73;101409.25;5015673;28;45332;-79
2022/06/17 02:44:32;;;;;;;;;13.00;11.50;;;;;22.65;42.74;101401.44;5016692;28;45357;-79
2022/06/17 02:47:00;;;;;;;;;11.50;10.50;;;;;22.65;43.05;101406.84;5015127;28;45659;-77
2022/06/17 02:49:30;;;;;;;;;12.25;10.75;;;;;22.59;43.14;101407.19;5002252;28;45626;-75
2022/06/17 02:51:58;;;;;;;;;11.25;11.25;;;;;22.48;43.30;101392.50;4995121;28;45589;-76
2022/06/17 02:54:50;;;;;;;;;8.50;8.50;;;;;22.60;43.34;101415.19;4996646;28;45482;-77
2022/06/17 02:57:21;;;;;;;;;11.00;11.00;;;;;22.51;43.28;101405.78;5014578;28;45455;-75
2022/06/17 02:59:56;;;;;;;;;11.25;9.75;;;;;22.49;43.48;101402.34;5014612;28;46203;-75
2022/06/17 03:02:31;;;;;;;;;8.25;8.25;;;;;22.45;43.78;101406.16;5015475;28;45367;-76
2022/06/17 03:04:59;;;;;;;;;11.50;11.00;;;;;22.42;43.81;101411.72;5016110;28;45368;-76
2022/06/17 03:07:29;;;;;;;;;11.00;9.75;;;;;22.39;43.71;101416.41;5006982;28;45471;-76
2022/06/17 03:09:54;;;;;;;;;9.00;9.00;;;;;22.40;44.04;101412.78;5015551;28;45468;-75
2022/06/17 03:12:23;;;;;;;;;8.00;7.00;;;;;22.34;43.54;101408.59;5025082;28;45545;-77
2022/06/17 03:14:56;;;;;;;;;8.75;8.75;;;;;22.35;43.73;101407.66;5013867;28;45471;-76
2022/06/17 03:17:24;;;;;;;;;12.75;9.75;;;;;22.35;44.10;101399.56;5015426;28;45380;-76
2022/06/17 03:19:54;;;;;;;;;10.75;10.75;;;;;22.30;43.98;101394.38;5005880;28;45523;-77
2022/06/17 03:22:20;;;;;;;;;9.00;9.00;;;;;22.27;44.30;101388.31;5023975;28;45590;-76
2022/06/17 03:24:53;;;;;;;;;13.00;12.00;;;;;22.23;44.15;101382.25;5013786;28;45505;-77
2022/06/17 03:27:26;;;;;;;;;9.00;9.00;;;;;22.21;44.33;101375.19;5012920;28;45450;-75
2022/06/17 03:29:55;;;;;;;;;10.00;10.00;;;;;22.18;44.50;101382.50;5015871;28;45505;-76
2022/06/17 03:32:30;;;;;;;;;10.00;10.00;;;;;22.18;44.38;101385.19;5012828;28;45550;-77
2022/06/17 03:34:56;;;;;;;;;10.25;10.25;;;;;22.13;44.50;101371.09;5015418;28;45457;-77
2022/06/17 03:37:31;;;;;;;;;9.75;8.00;;;;;22.16;44.48;101378.16;5017237;28;45315;-79
2022/06/17 03:40:06;;;;;;;;;10.75;10.75;;;;;22.12;44.81;101372.09;5019330;28;46421;-77
2022/06/17 03:42:38;;;;;;;;;8.00;7.75;;;;;22.11;44.80;101362.25;5016232;28;45455;-76
2022/06/17 03:45:20;;;;;;;;;10.75;10.75;;;;;22.11;44.76;101372.19;5015586;28;45569;-77
2022/06/17 03:47:55;;;;;;;;;10.75;10.75;;;;;22.08;44.97;101351.69;5011027;28;45612;-77
2022/06/17 03:50:28;;;;;;;;;10.25;10.25;;;;;22.10;44.72;101368.59;5011443;28;46288;-76
2022/06/17 03:53:20;;;;;;;;;7.75;7.75;;;;;22.08;44.58;101392.03;5012175;28;45490;-78
2022/06/17 03:55:45;;;;;;;;;9.25;9.25;;;;;22.02;44.94;101397.78;4989174;28;45490;-76
2022/06/17 03:58:15;;;;;;;;;8.50;7.75;;;;;22.00;44.73;101388.88;5013563;28;45360;-76
2022/06/17 04:00:48;;;;;;;;;13.25;11.50;;;;;22.00;44.73;101388.88;5012043;28;46026;-76
2022/06/17 04:03:17;;;;;;;;;8.50;8.50;;;;;22.00;44.15;101405.94;5015625;28;45434;-77
2022/06/17 04:05:46;;;;;;;;;11.25;11.25;;;;;22.02;44.65;101411.22;5015410;28;45574;-76
2022/06/17 04:08:12;;;;;;;;;10.50;9.50;;;;;22.01;44.71;101406.78;5010813;28;45484;-77
2022/06/17 04:10:38;;;;;;;;;13.50;12.50;;;;;22.02;44.53;101397.78;5014187;28;45367;-76
2022/06/17 04:13:03;;;;;;;;;12.25;10.75;;;;;22.03;44.36;101388.75;5012378;28;45858;-76
2022/06/17 04:15:47;;;;;;;;;10.00;10.00;;;;;22.08;44.11;101392.03;5010399;28;45639;-76
2022/06/17 04:18:13;;;;;;;;;13.25;11.25;;;;;22.08;44.15;101396.56;5004443;28;45250;-76
2022/06/17 04:20:48;;;;;;;;;12.00;12.00;;;;;22.15;44.63;101395.25;5014612;28;46551;-78
2022/06/17 04:23:20;;;;;;;;;12.25;12.00;;;;;22.16;44.11;101388.91;5004007;28;45437;-77
2022/06/17 04:26:00;;;;;;;;;10.25;10.25;;;;;22.21;44.40;101397.59;5013325;28;45379;-76
2022/06/17 04:28:41;;;;;;;;;11.25;11.25;;;;;22.28;44.59;101399.00;5014764;28;45367;-78
2022/06/17 04:31:13;;;;;;;;;10.75;10.75;;;;;22.33;44.02;101409.53;5013226;28;46585;-76
2022/06/17 04:33:50;;;;;;;;;9.25;9.25;;;;;22.40;43.77;101396.63;5015680;28;45479;-77
2022/06/17 04:36:30;;;;;;;;;15.00;11.25;;;;;22.52;43.46;101396.78;5016395;28;45459;-77
2022/06/17 04:39:06;;;;;;;;;10.00;10.00;;;;;22.68;43.32;101401.25;5015660;28;45344;-76
2022/06/17 04:41:36;;;;;;;;;13.50;11.50;;;;;22.80;43.24;101405.94;5014252;28;47118;-78
2022/06/17 04:44:04;;;;;;;;;9.50;9.50;;;;;22.94;42.47;101409.66;5012883;28;45272;-76
2022/06/17 04:46:37;;;;;;;;;9.00;9.00;;;;;23.17;42.22;101414.59;5012783;28;45494;-76
2022/06/17 04:49:05;;;;;;;;;8.00;7.50;;;;;23.43;41.54;101414.84;5012993;28;45514;-77
2022/06/17 04:51:34;;;;;;;;;9.00;9.00;;;;;23.68;40.99;101413.31;5011584;28;45479;-77
2022/06/17 04:53:59;;;;;;;;;9.00;9.00;;;;;23.96;40.61;101409.81;5012541;28;45534;-77
2022/06/17 04:56:32;;;;;;;;;8.00;8.00;;;;;24.15;39.96;101406.78;5010234;28;45479;-78
2022/06/17 04:58:58;;;;;;;;;8.00;7.00;;;;;24.38;39.49;101407.97;5005430;28;45384;-76
2022/06/17 05:01:26;;;;;;;;;8.50;8.50;;;;;24.72;39.72;101402.22;5013539;28;45538;-77
2022/06/17 05:03:59;;;;;;;;;11.75;10.00;;;;;25.06;38.59;101405.38;5003602;28;45442;-76
2022/06/17 05:06:24;;;;;;;;;9.75;9.75;;;;;25.32;38.09;101407.16;5016805;28;45580;-77
2022/06/17 05:08:56;;;;;;;;;10.00;10.00;;;;;25.69;37.62;101404.59;5012954;28;45253;-77
2022/06/17 05:11:31;;;;;;;;;8.00;8.00;;;;;26.17;36.53;101403.03;5013004;28;45909;-77
2022/06/17 05:14:21;;;;;;;;;7.00;7.00;;;;;26.69;35.80;101404.63;5012450;28;45442;-77
2022/06/17 05:16:46;;;;;;;;;9.75;8.25;;;;;27.10;34.97;101397.88;5008148;28;45447;-77
2022/06/17 05:19:11;;;;;;;;;9.75;9.75;;;;;27.52;34.22;101399.25;5006039;28;45482;-77
2022/06/17 05:21:37;;;;;;;;;7.50;7.50;;;;;27.94;33.67;101394.09;5014234;28;45371;-78
2022/06/17 05:24:03;;;;;;;;;10.00;9.00;;;;;28.36;32.42;101383.41;5011440;28;45339;-77
2022/06/17 05:26:28;;;;;;;;;9.50;8.50;;;;;28.66;32.43;101384.59;5012791;28;45336;-76
2022/06/17 05:28:53;;;;;;;;;9.00;9.00;;;;;29.12;31.68;101371.66;5011987;28;45673;-77
2022/06/17 05:31:24;;;;;;;;;9.00;8.00;;;;;29.56;31.27;101375.97;5013869;28;45620;-77
2022/06/17 05:33:49;;;;;;;;;8.25;8.25;;;;;29.87;29.99;101370.53;5018001;28;45482;-77
2022/06/17 05:36:16;;;;;;;;;7.50;6.25;;;;;30.35;30.33;101370.81;5017740;28;45419;-77
2022/06/17 05:38:42;;;;;;;;;10.00;10.00;;;;;30.67;29.23;101362.41;5013114;28;45426;-77
2022/06/17 05:41:14;;;;;;;;;9.50;8.25;;;;;31.08;29.48;101365.00;5019130;28;47445;-77
2022/06/17 05:43:39;;;;;;;;;8.00;8.00;;;;;31.46;28.27;101368.63;5012990;28;45654;-76
2022/06/17 05:46:05;;;;;;;;;9.00;6.50;;;;;31.76;27.70;101358.50;5011519;28;45899;-77
2022/06/17 05:48:30;;;;;;;;;8.00;8.00;;;;;32.17;27.50;101359.03;5013463;28;45335;-77
2022/06/17 05:50:55;;;;;;;;;9.25;9.25;;;;;32.23;27.58;101363.88;5009240;28;46882;-78
2022/06/17 05:53:21;;;;;;;;;8.00;8.00;;;;;32.57;26.59;101368.69;5012089;28;45392;-76
2022/06/17 05:55:46;;;;;;;;;8.75;8.00;;;;;32.84;26.12;101362.28;5014249;28;45534;-76
2022/06/17 05:58:11;;;;;;;;;9.25;8.75;;;;;33.37;26.14;101360.47;5015953;28;45655;-77
2022/06/17 06:00:37;;;;;;;;;6.25;6.25;;;;;34.07;25.38;101367.69;5014145;28;45416;-76
2022/06/17 06:03:05;;;;;;;;;8.75;8.75;;;;;34.33;25.24;101367.66;5019772;28;45357;-78
2022/06/17 06:05:33;;;;;;;;;7.25;7.25;;;;;34.65;24.92;101373.31;5020331;28;45344;-76
2022/06/17 06:07:59;;;;;;;;;5.25;5.25;;;;;34.94;23.85;101370.13;5017240;28;45501;-77
2022/06/17 06:10:25;;;;;;;;;7.75;7.75;;;;;35.21;23.95;101368.03;5014732;28;45608;-75
2022/06/17 06:12:53;;;;;;;;;6.75;6.25;;;;;35.50;24.03;101372.13;5013996;28;45458;-76
2022/06/17 06:15:21;;;;;;;;;9.25;8.00;;;;;35.89;23.45;101363.94;5014889;28;45642;-77
2022/06/17 06:17:47;;;;;;;;;10.00;9.00;;;;;36.22;22.89;101362.91;5016439;28;45613;-77
2022/06/17 06:20:14;;;;;;;;;8.00;8.00;;;;;36.42;23.51;101344.91;5016719;28;46868;-77
2022/06/17 06:22:40;;;;;;;;;5.00;5.00;;;;;36.79;22.85;101345.19;5013958;28;45560;-76
2022/06/17 06:25:06;;;;;;;;;6.50;6.50;;;;;37.16;22.36;101335.22;5014653;28;45455;-77
2022/06/17 06:27:31;;;;;;;;;9.25;9.25;;;;;37.12;21.84;101331.13;5016570;28;45433;-76
2022/06/17 06:29:56;;;;;;;;;7.75;7.75;;;;;37.28;21.17;101333.72;5015473;28;45874;-76
2022/06/17 06:32:22;;;;;;;;;9.25;8.00;;;;;37.46;21.30;101332.47;5014380;28;45392;-76
2022/06/17 06:34:48;;;;;;;;;8.00;8.00;;;;;37.64;21.55;101327.47;5013487;28;45501;-76
2022/06/17 06:37:13;;;;;;;;;8.00;8.00;;;;;37.81;21.36;101321.75;5017460;28;45393;-77
2022/06/17 06:39:39;;;;;;;;;8.00;8.00;;;;;38.25;21.06;101325.47;5017529;28;46865;-76
2022/06/17 06:42:04;;;;;;;;;11.25;10.00;;;;;38.57;21.04;101319.41;5016644;28;45686;-75
2022/06/17 06:44:30;;;;;;;;;9.00;8.00;;;;;39.01;20.31;101330.41;5014131;28;45792;-76
2022/06/17 06:46:55;;;;;;;;;7.75;7.75;;;;;39.17;20.39;101340.34;5013250;28;45559;-76
2022/06/17 06:49:21;;;;;;;;;8.00;8.00;;;;;39.45;19.89;101334.81;5015378;28;46311;-76
2022/06/17 06:51:46;;;;;;;;;8.75;8.25;;;;;39.68;20.05;101328.97;5014835;28;45695;-76
2022/06/17 06:54:11;;;;;;;;;10.50;9.75;;;;;40.00;19.40;101323.81;5015997;28;45569;-77
2022/06/17 06:56:37;;;;;;;;;9.00;9.00;;;;;40.45;19.05;101328.81;5013005;28;45532;-77
2022/06/17 06:59:03;;;;;;;;;10.75;10.75;;;;;40.77;18.58;101332.69;5010771;28;46220;-78
2022/06/17 07:01:28;;;;;;;;;9.00;8.25;;;;;40.82;17.97;101327.34;5017854;28;45824;-77
2022/06/17 07:03:53;;;;;;;;;4.75;4.75;;;;;41.05;19.04;101323.31;5010956;28;45478;-76
2022/06/17 07:06:19;;;;;;;;;10.75;10.75;;;;;41.26;18.48;101330.53;5009612;28;45567;-78
2022/06/17 07:08:44;;;;;;;;;10.25;10.25;;;;;41.23;18.38;101335.66;5007375;28;46127;-78
2022/06/17 07:11:10;;;;;;;;;10.25;10.25;;;;;41.08;17.47;101347.00;5016220;28;45530;-77
2022/06/17 07:13:35;;;;;;;;;10.25;10.25;;;;;41.19;18.64;101344.38;5016060;28;45313;-76
2022/06/17 07:16:01;;;;;;;;;12.50;12.25;;;;;41.54;18.09;101340.50;5013933;28;45415;-77
2022/06/17 07:18:30;;;;;;;;;9.50;9.50;;;;;41.91;18.30;101354.69;4998262;28;46148;-77
2022/06/17 07:21:01;;;;;;;;;7.75;7.75;;;;;41.82;17.48;101353.22;5015229;28;45519;-77
2022/06/17 07:23:39;;;;;;;;;11.75;11.00;;;;;42.11;18.04;101362.91;5018786;28;45573;-78
2022/06/17 07:26:07;;;;;;;;;12.50;12.25;;;;;42.67;17.42;101360.44;5017262;28;45691;-78
2022/06/17 07:28:33;;;;;;;;;8.50;8.50;;;;;42.66;16.22;101359.59;5014248;28;45579;-77
2022/06/17 07:30:59;;;;;;;;;9.75;9.75;;;;;42.64;16.80;101347.00;5016701;28;45582;-78
2022/06/17 07:33:28;;;;;;;;;11.50;9.50;;;;;42.64;16.31;101344.25;5010180;28;45846;-77
2022/06/17 07:35:57;;;;;;;;;10.00;10.00;;;;;42.84;16.74;101350.47;5011087;28;45280;-78
2022/06/17 07:41:12;;;;;;;;;10.75;9.75;;;;;42.60;15.99;101357.72;5008322;28;45544;-77
2022/06/17 07:43:38;;;;;;;;;8.50;8.50;;;;;42.77;17.22;101356.13;5031339;28;45423;-76
2022/06/17 07:46:06;;;;;;;;;10.00;7.50;;;;;42.93;16.10;101370.50;5015542;28;45472;-76
2022/06/17 07:48:32;;;;;;;;;8.50;8.50;;;;;43.17;15.93;101382.72;5000602;28;46296;-77
2022/06/17 07:51:00;;;;;;;;;11.00;9.75;;;;;43.57;17.02;101393.44;4994979;28;45340;-78
2022/06/17 07:53:29;;;;;;;;;9.75;9.75;;;;;43.79;15.94;101395.75;4996061;28;45317;-77
2022/06/17 07:55:55;;;;;;;;;8.75;8.75;;;;;43.56;15.79;101394.50;4994687;28;46013;-78
2022/06/17 07:58:20;;;;;;;;;7.25;7.00;;;;;43.76;16.71;101401.75;5011650;28;46126;-77
2022/06/17 08:00:47;;;;;;;;;6.00;6.00;;;;;44.20;15.80;101405.28;5021032;28;45364;-78
2022/06/17 08:03:14;;;;;;;;;8.25;8.25;;;;;44.54;16.35;101403.75;5014908;28;45486;-77
2022/06/17 08:05:46;;;;;;;;;8.25;7.00;;;;;44.79;15.31;101390.75;5014323;28;45525;-76
2022/06/17 08:08:12;;;;;;;;;8.00;6.75;;;;;44.89;14.77;101402.16;5014785;28;45793;-78
2022/06/17 08:10:38;;;;;;;;;8.75;8.25;;;;;44.87;14.35;101402.41;5000010;28;45573;-77
2022/06/17 08:13:06;;;;;;;;;8.00;8.00;;;;;44.90;15.53;101398.28;5007454;28;45582;-77
2022/06/17 08:15:33;;;;;;;;;7.25;7.25;;;;;45.17;15.69;101409.00;5015463;28;45406;-77
2022/06/17 08:17:59;;;;;;;;;9.50;7.75;;;;;45.20;14.87;101411.28;5012836;28;45507;-78
2022/06/17 08:20:30;;;;;;;;;10.50;9.50;;;;;45.03;14.46;101413.97;5015312;28;45486;-75
2022/06/17 08:22:56;;;;;;;;;8.00;8.00;;;;;44.82;15.21;101412.56;5012821;28;45633;-76
2022/06/17 08:25:21;;;;;;;;;8.75;8.75;;;;;44.96;14.36;101408.47;5006637;28;45500;-77
2022/06/17 08:27:53;;;;;;;;;7.50;7.50;;;;;44.73;14.97;101405.66;5013631;28;46292;-77
2022/06/17 08:30:22;;;;;;;;;6.25;6.25;;;;;44.96;13.96;101394.56;5008659;28;45530;-77
2022/06/17 08:32:50;;;;;;;;;3.00;3.00;;;;;44.89;14.21;101400.22;4994734;28;45432;-80
2022/06/17 08:35:21;;;;;;;;;8.75;8.75;;;;;44.71;14.89;101397.53;4995906;28;45648;-78
2022/06/17 08:37:51;;;;;;;;;10.75;8.00;;;;;44.91;15.46;101393.56;4997837;28;45526;-78
2022/06/17 08:40:31;;;;;;;;;8.50;8.50;;;;;45.05;15.17;101393.13;5008692;28;45533;-75
2022/06/17 08:43:18;;;;;;;;;7.00;7.00;;;;;45.44;14.08;101389.00;5013849;28;45411;-77
2022/06/17 08:46:11;;;;;;;;;6.75;6.75;;;;;45.56;14.33;101389.84;4995334;28;45288;-76
2022/06/17 08:49:04;;;;;;;;;7.00;7.00;;;;;45.49;14.15;101389.13;5009054;28;46258;-78
2022/06/17 08:51:44;;;;;;;;;6.25;6.00;;;;;45.78;14.71;101378.00;5011547;28;45382;-78
2022/06/17 08:54:19;;;;;;;;;7.25;7.25;;;;;45.50;13.82;101388.03;5015437;28;45391;-78
2022/06/17 08:57:03;;;;;;;;;9.50;9.00;;;;;45.71;14.35;101379.00;5016992;28;45386;-78
2022/06/17 08:59:59;;;;;;;;;6.50;6.50;;;;;45.96;14.00;101380.66;5017641;28;45736;-77
2022/06/17 09:02:51;;;;;;;;;7.00;6.75;;;;;45.57;13.06;101375.66;5013102;28;45627;-78
2022/06/17 09:05:28;;;;;;;;;7.00;7.00;;;;;45.67;14.12;101371.38;5011737;28;45566;-78
2022/06/17 09:08:29;;;;;;;;;7.50;7.50;;;;;45.72;13.39;101377.91;5029649;28;45313;-78
2022/06/17 09:11:22;;;;;;;;;6.75;6.75;;;;;45.79;12.99;101377.81;5004952;28;45480;-78
2022/06/17 09:14:03;;;;;;;;;8.75;7.00;;;;;45.62;13.08;101374.91;4995165;28;45510;-80
2022/06/17 09:16:48;;;;;;;;;7.75;7.75;;;;;45.58;13.92;101365.31;4994978;28;45380;-82
2022/06/17 09:19:19;;;;;;;;;6.50;6.50;;;;;45.83;13.36;101369.75;4994735;28;45437;-81
2022/06/17 09:21:54;;;;;;;;;8.25;7.00;;;;;45.86;12.69;101369.28;5015571;28;45338;-82
2022/06/17 09:24:28;;;;;;;;;9.00;8.25;;;;;45.64;14.22;101364.34;5015874;28;45399;-78
2022/06/17 09:27:00;;;;;;;;;7.50;7.50;;;;;45.67;12.92;101377.78;5019696;28;45380;-77
2022/06/17 09:29:36;;;;;;;;;6.50;6.50;;;;;45.57;14.31;101372.03;5017760;28;45406;-78
2022/06/17 09:32:13;;;;;;;;;8.50;8.00;;;;;45.78;14.50;101366.84;5013650;28;45483;-78
2022/06/17 09:34:41;;;;;;;;;8.00;8.00;;;;;45.93;13.03;101354.09;5014100;28;45429;-78
2022/06/17 09:37:12;;;;;;;;;8.00;8.00;;;;;46.11;13.94;101355.81;5014241;28;45469;-78
2022/06/17 09:39:44;;;;;;;;;7.25;7.25;;;;;46.16;14.52;101360.66;5016531;28;45666;-78
2022/06/17 09:42:31;;;;;;;;;8.00;8.00;;;;;46.05;13.11;101356.81;5015463;28;46093;-78
2022/06/17 09:45:20;;;;;;;;;7.00;7.00;;;;;45.99;12.92;101357.81;5017437;28;45423;-79
2022/06/17 09:48:03;;;;;;;;;7.75;7.00;;;;;45.33;12.71;101360.84;5017357;28;45350;-79
2022/06/17 09:50:36;;;;;;;;;7.75;7.25;;;;;44.93;13.62;101364.34;5017840;28;45523;-78
2022/06/17 09:53:10;;;;;;;;;7.00;7.00;;;;;44.90;13.34;101362.03;5016331;28;45438;-77
2022/06/17 09:55:41;;;;;;;;;10.00;8.25;;;;;44.89;12.68;101357.56;5021140;28;45423;-77
2022/06/17 09:58:23;;;;;;;;;7.75;7.75;;;;;45.05;12.80;101365.25;5037686;28;45354;-77
2022/06/17 10:00:53;;;;;;;;;7.00;7.00;;;;;44.87;13.50;101362.53;5017070;28;45371;-78
2022/06/17 10:03:28;;;;;;;;;6.00;6.00;;;;;44.63;13.65;101356.94;5015908;28;45509;-79
2022/06/17 10:06:21;;;;;;;;;9.75;7.00;;;;;44.58;13.95;101359.53;5015633;28;45388;-79
2022/06/17 10:08:53;;;;;;;;;8.00;7.00;;;;;44.14;14.96;101362.56;5017031;28;45273;-78
2022/06/17 10:11:43;;;;;;;;;8.00;7.00;;;;;44.33;15.29;101368.94;5016354;28;45442;-79
2022/06/17 10:14:39;;;;;;;;;8.75;7.50;;;;;44.72;14.66;101360.22;4996815;28;46426;-77
2022/06/17 10:20:16;;;;;;;;;7.75;7.75;;;;;45.19;15.19;101346.34;4997600;28;45335;-78
2022/06/17 10:23:23;;;;;;;;;9.25;9.25;;;;;45.15;14.45;101347.91;5010217;28;45544;-77
2022/06/17 10:26:16;;;;;;;;;8.50;8.50;;;;;44.81;14.08;101352.34;4979466;28;45399;-78
2022/06/17 10:28:48;;;;;;;;;6.25;6.25;;;;;44.87;14.23;101346.69;4975731;28;45445;-77
2022/06/17 10:31:39;;;;;;;;;7.25;7.25;;;;;44.81;13.70;101341.19;4974717;28;45487;-77
2022/06/17 10:34:19;;;;;;;;;6.75;6.75;;;;;44.93;13.29;101352.34;4974660;28;45434;-79
2022/06/17 10:36:47;;;;;;;;;6.75;6.75;;;;;44.64;13.57;101344.72;4975090;28;46779;-78
2022/06/17 10:39:15;;;;;;;;;7.00;7.00;;;;;44.41;13.20;101347.41;4974915;28;45390;-78
2022/06/17 10:41:41;;;;;;;;;5.25;5.25;;;;;44.45;13.70;101343.06;4980374;28;45513;-78
2022/06/17 10:44:11;;;;;;;;;6.00;6.00;;;;;44.14;13.83;101342.22;4974893;28;45442;-78
2022/06/17 10:46:40;;;;;;;;;6.75;5.00;;;;;43.79;13.92;101346.53;4974213;28;46002;-77
2022/06/17 10:49:18;;;;;;;;;4.50;4.50;;;;;43.77;13.34;101340.31;4974768;28;45551;-78
2022/06/17 10:51:47;;;;;;;;;5.50;5.50;;;;;44.06;14.12;101345.34;4974332;28;45425;-80
2022/06/17 10:54:21;;;;;;;;;5.75;5.75;;;;;44.27;14.63;101342.03;4975851;28;45354;-78
2022/06/17 10:56:58;;;;;;;;;7.25;6.00;;;;;44.41;14.26;101348.25;4978172;28;46477;-79
2022/06/17 10:59:38;;;;;;;;;5.00;5.00;;;;;44.73;13.96;101349.94;4955459;28;45382;-77
2022/06/17 11:02:04;;;;;;;;;6.00;6.00;;;;;44.58;13.37;101351.19;4977348;28;45473;-79
2022/06/17 11:04:35;;;;;;;;;7.00;7.00;;;;;44.19;13.79;101350.72;5016579;28;45428;-77
2022/06/17 11:07:06;;;;;;;;;7.25;7.25;;;;;43.63;13.85;101342.44;5015383;28;45529;-78
2022/06/17 11:09:39;;;;;;;;;4.25;4.25;;;;;43.63;14.25;101344.38;5016293;28;45367;-79
2022/06/17 11:12:16;;;;;;;;;6.50;6.50;;;;;43.69;14.34;101345.34;5011920;28;45542;-77
2022/06/17 11:14:44;;;;;;;;;6.50;6.50;;;;;43.98;14.47;101350.13;5005621;28;45393;-78
2022/06/17 11:17:31;;;;;;;;;6.00;6.00;;;;;44.22;13.68;101352.19;5012036;28;46167;-78
2022/06/17 11:20:01;;;;;;;;;6.50;6.50;;;;;44.34;14.23;101353.94;4996912;28;45713;-78
2022/06/17 11:22:37;;;;;;;;;5.25;5.25;;;;;44.33;14.24;101348.59;4996955;28;45410;-78
2022/06/17 11:25:11;;;;;;;;;6.75;5.75;;;;;44.24;13.77;101342.53;5017056;28;45394;-79
2022/06/17 11:27:43;;;;;;;;;8.50;8.50;;;;;44.24;14.16;101341.69;5030121;28;47429;-79
2022/06/17 11:30:22;;;;;;;;;10.75;8.00;;;;;43.92;14.07;101339.94;5015669;28;45530;-77
2022/06/17 11:32:48;;;;;;;;;7.75;7.75;;;;;43.80;14.13;101336.25;5014841;28;45513;-78
2022/06/17 11:35:19;;;;;;;;;6.25;6.25;;;;;44.00;15.17;101347.13;5015255;28;45482;-78
2022/06/17 11:37:47;;;;;;;;;11.00;8.25;;;;;43.96;15.50;101341.19;5010313;28;45522;-80
2022/06/17 11:40:23;;;;;;;;;6.25;6.25;;;;;44.05;14.59;101336.16;5001733;28;46289;-79
2022/06/17 11:42:56;;;;;;;;;5.75;5.75;;;;;43.96;13.55;101330.06;5009287;28;45328;-79
2022/06/17 11:45:23;;;;;;;;;5.50;5.50;;;;;43.26;14.91;101328.53;5015783;28;45403;-78
2022/06/17 11:47:55;;;;;;;;;8.25;8.25;;;;;43.24;15.12;101322.31;5015630;28;46092;-79
2022/06/17 11:50:30;;;;;;;;;7.25;7.25;;;;;43.16;13.85;101321.78;5015218;28;45480;-78
2022/06/17 11:53:03;;;;;;;;;5.00;5.00;;;;;43.08;14.46;101311.81;5018845;28;45328;-79